createdAt,value
2019-01-18T00:32:48.505Z,98352.17
2019-01-18T00:35:16.379Z,98367.01
2019-01-18T00:37:44.357Z,98358.68
2019-01-18T00:40:13.238Z,98366.23
2019-01-18T00:42:41.463Z,98354.67
2019-01-18T00:45:12.158Z,98372.67
2019-01-18T00:47:40.912Z,98373.27
2019-01-18T00:50:11.112Z,98375.23
2019-01-18T00:52:39.160Z,98383.02
2019-01-18T00:55:07.872Z,98386.14
2019-01-18T00:57:35.896Z,98387.47
2019-01-18T01:00:06.604Z,98396.42
2019-01-18T01:02:35.062Z,98403.61
2019-01-18T01:05:03.021Z,98407.66
2019-01-18T01:07:31.012Z,98410.14
2019-01-18T01:09:59.961Z,98417.92
2019-01-18T01:12:28.041Z,98421.40
2019-01-18T01:14:56.011Z,98421.94
2019-01-18T01:17:24.793Z,98423.47
2019-01-18T01:19:52.927Z,98420.13
2019-01-18T01:22:20.904Z,98422.67
2019-01-18T01:24:49.469Z,98427.81
2019-01-18T01:27:17.865Z,98440.27
2019-01-18T01:29:46.057Z,98449.66
2019-01-18T01:32:14.231Z,98425.55
2019-01-18T01:34:43.025Z,98457.59
2019-01-18T01:37:11.835Z,98457.40
2019-01-18T01:39:39.884Z,98464.20
2019-01-18T01:42:07.679Z,98487.88
2019-01-18T01:44:36.128Z,98469.34
2019-01-18T01:47:04.086Z,98456.70
2019-01-18T01:49:32.348Z,98483.40
2019-01-18T01:52:00.436Z,98483.01
2019-01-18T01:54:28.634Z,98489.43
2019-01-18T01:56:56.748Z,98500.21
2019-01-18T01:59:25.260Z,98502.64
2019-01-18T02:01:53.015Z,98505.98
2019-01-18T02:04:21.705Z,98507.34
2019-01-18T02:06:49.682Z,98506.18
2019-01-18T02:09:17.846Z,98503.44
2019-01-18T02:11:45.833Z,98503.44
2019-01-18T02:14:13.986Z,98508.92
2019-01-18T02:16:42.261Z,98487.77
2019-01-18T02:19:11.061Z,98510.37
2019-01-18T02:21:39.445Z,98519.97
2019-01-18T02:24:07.804Z,98531.14
2019-01-18T02:26:35.881Z,98536.83
2019-01-18T02:29:04.704Z,98534.95
2019-01-18T02:31:32.777Z,98539.41
2019-01-18T02:34:00.885Z,98549.48
2019-01-18T02:36:28.947Z,98544.39
2019-01-18T02:38:56.991Z,98557.23
2019-01-18T02:41:25.153Z,98555.86
2019-01-18T02:43:52.967Z,98554.88
2019-01-18T02:46:20.697Z,98446.34
2019-01-18T02:48:48.790Z,98551.84
2019-01-18T02:51:16.575Z,98554.08
2019-01-18T02:53:44.905Z,98555.08
2019-01-18T02:56:12.756Z,98573.02
2019-01-18T02:58:40.666Z,98569.59
2019-01-18T03:01:09.165Z,98566.38
2019-01-18T03:03:37.360Z,98574.88
2019-01-18T03:06:05.114Z,98576.53
2019-01-18T03:08:33.597Z,98588.55
2019-01-18T03:11:01.566Z,98596.06
2019-01-18T03:13:29.808Z,98595.17
2019-01-18T03:15:58.341Z,98595.12
2019-01-18T03:18:26.485Z,98603.34
2019-01-18T03:20:54.469Z,98613.13
2019-01-18T03:23:22.809Z,98616.50
2019-01-18T03:25:50.857Z,98598.23
2019-01-18T03:28:18.889Z,98630.91
2019-01-18T03:30:47.594Z,98633.41
2019-01-18T03:33:15.881Z,98637.88
2019-01-18T03:35:43.930Z,98604.60
2019-01-18T03:38:12.289Z,98684.45
2019-01-18T03:40:40.204Z,98659.21
2019-01-18T03:43:08.086Z,98651.89
2019-01-18T03:45:36.899Z,98671.27
2019-01-18T03:48:05.072Z,98667.15
2019-01-18T03:50:33.402Z,98674.83
2019-01-18T03:53:01.644Z,98681.64
2019-01-18T03:55:30.598Z,98692.05
2019-01-18T03:57:58.394Z,98700.92
2019-01-18T04:00:29.194Z,98709.34
2019-01-18T04:02:57.449Z,98710.78
2019-01-18T04:05:25.486Z,98719.44
2019-01-18T04:07:54.259Z,98731.59
2019-01-18T04:10:22.989Z,98732.19
2019-01-18T04:12:51.314Z,98738.29
2019-01-18T04:15:21.801Z,98756.59
2019-01-18T04:17:50.901Z,98757.28
2019-01-18T04:20:19.593Z,98726.39
2019-01-18T04:22:48.168Z,98774.44
2019-01-18T04:25:19.576Z,98698.98
2019-01-18T04:27:47.659Z,98779.85
2019-01-18T04:30:17.985Z,98790.91
2019-01-18T04:32:46.001Z,98792.76
2019-01-18T04:35:14.108Z,98801.20
2019-01-18T04:37:42.657Z,98800.45
2019-01-18T04:40:15.139Z,98795.56
2019-01-18T04:42:43.477Z,98798.27
2019-01-18T04:45:12.069Z,98808.33
2019-01-18T04:47:40.907Z,98813.78
2019-01-18T04:50:11.829Z,98814.59
2019-01-18T04:52:40.081Z,98824.00
2019-01-18T04:55:08.766Z,98821.47
2019-01-18T04:57:37.146Z,98840.28
2019-01-18T05:00:08.024Z,98835.92
2019-01-18T05:02:35.865Z,98821.06
2019-01-18T05:05:06.194Z,98848.59
2019-01-18T05:07:34.368Z,98855.91
2019-01-18T05:10:05.093Z,98865.22
2019-01-18T05:12:32.956Z,98867.14
2019-01-18T05:15:06.255Z,98878.70
2019-01-18T05:17:34.664Z,98847.30
2019-01-18T05:20:03.499Z,98867.98
2019-01-18T05:22:31.947Z,98851.42
2019-01-18T05:25:00.046Z,98899.23
2019-01-18T05:27:28.689Z,98901.50
2019-01-18T05:29:57.284Z,98861.39
2019-01-18T05:32:26.397Z,98919.18
2019-01-18T05:34:54.177Z,98913.05
2019-01-18T05:37:22.956Z,98882.76
2019-01-18T05:39:51.168Z,98931.51
2019-01-18T05:42:20.751Z,98909.63
2019-01-18T05:44:49.621Z,98861.53
2019-01-18T05:47:18.491Z,98946.05
2019-01-18T05:49:47.207Z,98951.75
2019-01-18T05:52:15.401Z,98958.77
2019-01-18T05:54:43.816Z,98952.95
2019-01-18T05:57:11.974Z,98966.64
2019-01-18T05:59:41.084Z,98906.08
2019-01-18T06:02:09.204Z,98979.41
2019-01-18T06:04:38.586Z,98925.82
2019-01-18T06:07:06.681Z,98987.72
2019-01-18T06:09:34.600Z,99000.23
2019-01-18T06:12:02.778Z,98961.31
2019-01-18T06:14:30.610Z,99012.38
2019-01-18T06:16:58.401Z,99013.77
2019-01-18T06:19:26.813Z,99022.56
2019-01-18T06:21:54.556Z,99027.09
2019-01-18T06:24:22.579Z,99029.08
2019-01-18T06:26:51.097Z,99102.06
2019-01-18T06:29:19.554Z,99037.70
2019-01-18T06:31:47.502Z,99047.45
2019-01-18T06:34:15.974Z,99048.45
2019-01-18T06:36:43.941Z,98868.36
2019-01-18T06:39:11.729Z,99071.91
2019-01-18T06:41:49.799Z,99072.32
2019-01-18T06:44:17.677Z,99075.08
2019-01-18T06:46:46.450Z,99024.50
2019-01-18T06:49:16.116Z,99081.34
2019-01-18T06:51:44.582Z,99082.55
2019-01-18T06:54:12.689Z,99085.66
2019-01-18T06:56:40.421Z,99070.59
2019-01-18T06:59:08.220Z,99089.61
2019-01-18T07:01:36.285Z,99098.61
2019-01-18T07:04:04.547Z,99102.33
2019-01-18T07:06:32.298Z,99111.50
2019-01-18T07:09:00.965Z,99108.81
2019-01-18T07:11:28.779Z,99118.55
2019-01-18T07:13:56.569Z,99122.08
2019-01-18T07:16:25.198Z,99126.17
2019-01-18T07:18:53.100Z,99130.45
2019-01-18T07:21:24.326Z,99128.34
2019-01-18T07:23:52.791Z,98934.40
2019-01-18T07:26:20.845Z,99123.70
2019-01-18T07:28:49.072Z,99092.55
2019-01-18T07:31:17.417Z,99129.19
2019-01-18T07:33:45.154Z,99139.50
2019-01-18T07:36:12.994Z,99142.63
2019-01-18T07:38:41.568Z,99152.38
2019-01-18T07:41:09.439Z,99158.41
2019-01-18T07:43:37.535Z,99165.80
2019-01-18T07:46:06.338Z,98961.91
2019-01-18T07:48:34.198Z,99176.92
2019-01-18T07:51:01.973Z,99171.66
2019-01-18T07:53:30.198Z,99177.91
2019-01-18T07:55:57.945Z,99182.41
2019-01-18T07:58:25.942Z,99184.53
2019-01-18T08:00:53.996Z,99195.66
2019-01-18T08:03:21.947Z,99197.60
2019-01-18T08:05:50.030Z,99205.39
2019-01-18T08:08:18.017Z,99207.73
2019-01-18T08:10:45.949Z,99211.06
2019-01-18T08:13:14.019Z,99213.97
2019-01-18T08:15:42.696Z,99222.94
2019-01-18T08:18:10.705Z,99225.25
2019-01-18T08:20:38.686Z,99231.84
2019-01-18T08:23:06.524Z,99233.94
2019-01-18T08:25:34.549Z,99240.75
2019-01-18T08:28:03.515Z,99244.26
2019-01-18T08:30:31.707Z,99279.17
2019-01-18T08:32:59.649Z,99250.66
2019-01-18T08:35:28.635Z,99257.81
2019-01-18T08:37:56.410Z,99260.14
2019-01-18T08:40:36.071Z,99258.73
2019-01-18T08:43:05.625Z,99264.59
2019-01-18T08:45:37.357Z,99265.37
2019-01-18T08:48:06.378Z,99262.22
2019-01-18T08:50:34.513Z,99259.84
2019-01-18T08:53:02.493Z,99275.05
2019-01-18T08:55:30.425Z,99276.35
2019-01-18T08:57:58.254Z,99297.23
2019-01-18T09:00:26.694Z,99277.52
2019-01-18T09:02:56.015Z,99289.24
2019-01-18T09:05:24.897Z,99289.25
2019-01-18T09:07:53.656Z,99297.06
2019-01-18T09:10:22.792Z,99297.25
2019-01-18T09:12:50.863Z,99303.11
2019-01-18T09:15:19.389Z,99260.75
2019-01-18T09:17:47.201Z,99314.44
2019-01-18T09:20:17.687Z,99320.69
2019-01-18T09:22:45.495Z,99323.03
2019-01-18T09:25:13.572Z,99325.16
2019-01-18T09:27:41.366Z,99326.28
2019-01-18T09:30:13.328Z,99327.56
2019-01-18T09:32:42.686Z,99328.88
2019-01-18T09:35:11.865Z,99336.24
2019-01-18T09:37:40.187Z,99295.96
2019-01-18T09:40:11.940Z,99343.75
2019-01-18T09:42:40.898Z,99291.42
2019-01-18T09:45:09.496Z,99352.28
2019-01-18T09:47:37.486Z,99354.20
2019-01-18T09:50:09.317Z,99355.95
2019-01-18T09:52:37.047Z,99355.31
2019-01-18T09:55:05.611Z,99352.95
2019-01-18T09:57:33.937Z,99359.55
2019-01-18T10:00:01.721Z,99352.44
2019-01-18T10:02:29.680Z,99356.91
2019-01-18T10:04:57.852Z,99354.72
2019-01-18T10:07:25.669Z,99353.33
2019-01-18T10:09:53.468Z,99357.71
2019-01-18T10:12:22.035Z,99357.84
2019-01-18T10:14:49.817Z,99303.20
2019-01-18T10:17:17.613Z,99335.76
2019-01-18T10:19:45.831Z,99383.13
2019-01-18T10:22:13.827Z,99356.47
2019-01-18T10:24:41.995Z,99272.65
2019-01-18T10:27:17.050Z,99352.66
2019-01-18T10:29:44.893Z,99318.87
2019-01-18T10:32:12.958Z,99351.47
2019-01-18T10:34:41.676Z,99344.62
2019-01-18T10:37:09.670Z,99351.30
2019-01-18T10:39:37.401Z,99346.34
2019-01-18T10:42:05.631Z,99352.02
2019-01-18T10:44:33.400Z,99349.26
2019-01-18T10:47:01.144Z,99355.28
2019-01-18T10:49:29.310Z,99357.81
2019-01-18T10:51:57.035Z,99366.96
2019-01-18T10:54:25.057Z,99369.02
2019-01-18T10:56:53.498Z,99387.99
2019-01-18T10:59:21.338Z,99374.09
2019-01-18T11:01:49.322Z,99370.13
2019-01-18T11:04:17.599Z,99372.70
2019-01-18T11:06:45.369Z,99350.32
2019-01-18T11:09:13.599Z,99370.41
2019-01-18T11:11:41.374Z,99284.81
2019-01-18T11:14:09.269Z,99376.31
2019-01-18T11:16:38.455Z,99373.17
2019-01-18T11:19:06.461Z,99376.39
2019-01-18T11:21:34.582Z,99361.39
2019-01-18T11:24:03.113Z,99368.98
2019-01-18T11:26:31.024Z,99367.72
2019-01-18T11:28:59.161Z,99371.48
2019-01-18T11:31:27.503Z,99399.28
2019-01-18T11:33:55.327Z,99316.36
2019-01-18T11:36:23.279Z,99372.66
2019-01-18T11:38:51.525Z,99371.34
2019-01-18T11:41:19.809Z,99372.13
2019-01-18T11:43:47.646Z,99364.11
2019-01-18T11:46:15.659Z,99357.29
2019-01-18T11:48:43.700Z,99361.70
2019-01-18T11:51:11.594Z,99359.20
2019-01-18T11:53:39.343Z,99354.99
2019-01-18T11:56:07.574Z,99362.52
2019-01-18T11:58:35.506Z,99333.91
2019-01-18T12:01:04.471Z,99354.78
2019-01-18T12:03:32.249Z,99320.42
2019-01-18T12:06:00.099Z,99352.39
2019-01-18T12:08:28.038Z,99356.45
2019-01-18T12:10:55.942Z,99366.11
2019-01-18T12:13:23.791Z,99364.30
2019-01-18T12:15:52.066Z,99364.52
2019-01-18T12:18:19.827Z,99364.66
2019-01-18T12:20:47.689Z,99361.20
2019-01-18T12:23:16.131Z,99367.88
2019-01-18T12:25:44.078Z,99371.59
2019-01-18T12:28:12.181Z,99381.19
2019-01-18T12:30:41.221Z,99355.88
2019-01-18T12:33:09.033Z,99376.14
2019-01-18T12:35:36.826Z,99375.39
2019-01-18T12:38:05.162Z,99374.53
2019-01-18T12:40:33.081Z,99396.19
2019-01-18T12:43:01.437Z,99370.77
2019-01-18T12:45:31.982Z,99155.00
2019-01-18T12:47:59.951Z,99365.17
2019-01-18T12:50:32.107Z,99366.65
2019-01-18T12:53:00.286Z,99365.21
2019-01-18T12:55:28.172Z,99363.73
2019-01-18T12:57:56.091Z,99367.20
2019-01-18T13:00:24.744Z,99366.81
2019-01-18T13:02:52.694Z,99369.27
2019-01-18T13:05:25.397Z,99362.95
2019-01-18T13:07:53.566Z,99377.87
2019-01-18T13:10:22.190Z,99369.61
2019-01-18T13:12:50.145Z,99367.50
2019-01-18T13:15:22.825Z,99372.58
2019-01-18T13:17:52.261Z,99370.95
2019-01-18T13:20:20.674Z,99380.06
2019-01-18T13:22:49.493Z,99358.53
2019-01-18T13:25:17.638Z,99371.57
2019-01-18T13:27:45.517Z,99354.75
2019-01-18T13:30:14.998Z,99371.52
2019-01-18T13:32:43.529Z,99352.75
2019-01-18T13:35:11.609Z,99380.08
2019-01-18T13:37:39.969Z,99359.80
2019-01-18T13:40:13.321Z,99381.69
2019-01-18T13:42:42.293Z,99384.50
2019-01-18T13:45:11.010Z,99390.97
2019-01-18T13:47:39.336Z,99389.82
2019-01-18T13:50:10.106Z,99390.84
2019-01-18T13:52:38.636Z,99336.77
2019-01-18T13:55:11.954Z,99391.55
2019-01-18T13:57:39.929Z,99395.35
2019-01-18T14:00:09.404Z,99397.19
2019-01-18T14:02:40.586Z,99389.59
2019-01-18T14:05:07.426Z,99394.31
2019-01-18T14:07:36.152Z,99338.99
2019-01-18T14:10:05.404Z,99397.48
2019-01-18T14:12:33.426Z,99402.78
2019-01-18T14:15:02.026Z,99345.10
2019-01-18T14:17:30.300Z,99404.00
2019-01-18T14:19:59.528Z,99401.84
2019-01-18T14:22:27.486Z,99400.48
2019-01-18T14:24:55.846Z,99401.84
2019-01-18T14:27:24.148Z,99403.80
2019-01-18T14:29:52.955Z,99402.06
2019-01-18T14:32:20.815Z,99400.94
2019-01-18T14:34:48.930Z,99401.52
2019-01-18T14:37:17.030Z,99402.91
2019-01-18T14:39:45.112Z,99404.50
2019-01-18T14:42:13.474Z,99405.50
2019-01-18T14:44:44.281Z,99402.95
2019-01-18T14:47:12.379Z,99398.89
2019-01-18T14:49:42.582Z,99401.45
2019-01-18T14:52:13.691Z,99401.47
2019-01-18T14:54:48.489Z,99429.89
2019-01-18T14:57:18.841Z,99403.86
2019-01-18T14:59:49.222Z,99404.13
2019-01-18T15:02:17.654Z,99429.05
2019-01-18T15:04:46.685Z,99413.02
2019-01-18T15:07:14.843Z,99407.77
2019-01-18T15:09:43.139Z,99414.48
2019-01-18T15:12:11.099Z,99411.22
2019-01-18T15:14:40.245Z,99410.07
2019-01-18T15:17:08.990Z,99408.97
2019-01-18T15:19:37.122Z,99412.95
2019-01-18T15:22:05.410Z,99414.75
2019-01-18T15:24:36.262Z,99416.16
2019-01-18T15:27:06.406Z,99418.55
2019-01-18T15:29:35.415Z,99423.66
2019-01-18T15:32:04.469Z,99416.84
2019-01-18T15:34:32.336Z,99421.59
2019-01-18T15:37:02.159Z,99418.69
2019-01-18T15:39:31.105Z,99423.84
2019-01-18T15:41:59.353Z,99419.77
2019-01-18T15:44:27.362Z,99423.90
2019-01-18T15:46:56.424Z,99424.33
2019-01-18T15:49:24.677Z,99435.53
2019-01-18T15:51:52.694Z,99429.47
2019-01-18T15:54:21.366Z,99439.11
2019-01-18T15:56:49.998Z,99439.32
2019-01-18T15:59:17.915Z,99432.11
2019-01-18T16:01:47.369Z,99434.91
2019-01-18T16:04:15.574Z,99430.83
2019-01-18T16:06:44.045Z,99440.83
2019-01-18T16:09:13.763Z,99439.28
2019-01-18T16:11:42.069Z,99423.72
2019-01-18T16:14:10.747Z,99432.33
2019-01-18T16:16:46.807Z,99440.77
2019-01-18T16:19:14.927Z,99428.91
2019-01-18T16:21:43.507Z,99439.24
2019-01-18T16:24:11.718Z,99443.29
2019-01-18T16:26:39.808Z,99440.25
2019-01-18T16:29:08.450Z,99440.84
2019-01-18T16:31:36.900Z,99435.21
2019-01-18T16:34:05.333Z,99431.70
2019-01-18T16:36:34.184Z,99437.78
2019-01-18T16:39:04.752Z,99439.95
2019-01-18T16:41:37.300Z,99439.34
2019-01-18T16:44:06.225Z,99437.40
2019-01-18T16:46:34.826Z,99438.58
2019-01-18T16:49:04.199Z,99436.43
2019-01-18T16:51:33.240Z,99430.39
2019-01-18T16:54:01.919Z,99432.36
2019-01-18T16:56:30.244Z,99428.49
2019-01-18T16:59:00.951Z,99432.05
2019-01-18T17:01:30.089Z,99381.08
2019-01-18T17:03:58.359Z,99425.89
2019-01-18T17:06:27.938Z,99404.47
2019-01-18T17:08:55.968Z,99436.78
2019-01-18T17:11:24.129Z,99443.65
2019-01-18T17:13:52.698Z,99440.71
2019-01-18T17:16:20.559Z,99442.30
2019-01-18T17:18:48.686Z,99445.23
2019-01-18T17:21:17.014Z,99444.87
2019-01-18T17:23:45.562Z,99443.30
2019-01-18T17:26:13.782Z,99409.62
2019-01-18T17:28:41.992Z,99455.24
2019-01-18T17:31:10.333Z,99453.27
2019-01-18T17:33:38.594Z,99457.02
2019-01-18T17:36:16.741Z,99375.17
2019-01-18T17:39:50.998Z,99447.06
2019-01-18T17:42:28.181Z,99456.45
2019-01-18T17:45:24.541Z,99460.73
2019-01-18T17:48:38.424Z,99457.03
2019-01-18T17:52:20.841Z,99465.62
2019-01-18T17:55:03.629Z,99463.67
2019-01-18T17:58:14.608Z,99460.58
2019-01-18T18:03:00.461Z,99473.05
2019-01-18T18:05:41.343Z,99471.10
2019-01-18T18:08:32.876Z,99480.84
2019-01-18T18:13:14.475Z,99416.51
2019-01-18T18:15:54.547Z,99480.47
2019-01-18T18:20:35.612Z,99480.27
2019-01-18T18:23:18.653Z,99481.81
2019-01-18T18:26:02.678Z,99481.80
2019-01-18T18:30:47.395Z,99454.13
2019-01-18T18:33:30.939Z,99480.08
2019-01-18T18:36:28.824Z,99482.98
2019-01-18T18:45:27.765Z,99485.13
2019-01-18T18:48:05.729Z,99485.70
2019-01-18T18:51:06.754Z,99486.08
2019-01-18T18:54:57.873Z,99477.28
2019-01-18T18:57:40.078Z,99489.94
2019-01-18T19:00:16.169Z,99487.61
2019-01-18T19:02:58.740Z,99486.05
2019-01-18T19:05:47.002Z,99483.50
2019-01-18T19:08:34.807Z,99484.11
2019-01-18T19:11:18.662Z,99481.38
2019-01-18T19:14:12.610Z,99475.71
2019-01-18T19:19:00.068Z,99419.36
2019-01-18T19:21:40.059Z,99486.04
2019-01-18T19:24:31.213Z,99473.36
2019-01-18T19:27:20.132Z,99480.77
2019-01-18T19:40:22.391Z,99475.09
2019-01-18T19:44:14.637Z,99482.41
2019-01-18T19:47:12.260Z,99481.20
2019-01-18T19:51:54.651Z,99484.49
2019-01-18T19:54:38.634Z,99481.52
2019-01-18T19:57:21.983Z,99482.53
2019-01-18T20:00:01.825Z,99487.19
2019-01-18T20:02:38.123Z,99486.75
2019-01-18T20:05:21.394Z,99480.20
2019-01-18T20:10:07.516Z,99481.38
2019-01-18T20:14:56.153Z,99457.59
2019-01-18T20:17:47.092Z,99479.45
2019-01-18T20:20:30.914Z,99484.52
2019-01-18T20:23:11.962Z,99483.33
2019-01-18T20:25:48.542Z,99468.89
2019-01-18T20:29:00.354Z,99524.39
2019-01-18T20:32:48.695Z,99494.80
2019-01-18T20:35:32.167Z,99457.12
2019-01-18T20:38:18.625Z,99477.19
2019-01-18T20:41:04.893Z,99493.98
2019-01-18T20:43:43.061Z,99498.85
2019-01-18T20:46:25.515Z,99502.33
2019-01-18T20:49:03.420Z,99531.44
2019-01-18T20:51:51.795Z,99451.22
2019-01-18T20:54:48.596Z,99493.74
2019-01-18T20:57:28.565Z,99489.24
2019-01-18T21:03:12.389Z,99490.42
2019-01-18T21:05:55.205Z,99488.09
2019-01-18T21:08:37.922Z,99483.99
2019-01-18T21:11:21.484Z,99494.89
2019-01-18T21:14:16.619Z,99494.27
2019-01-18T21:16:58.548Z,99491.55
2019-01-18T21:20:35.752Z,99491.91
2019-01-18T21:25:50.325Z,99501.08
2019-01-18T21:30:39.321Z,99485.28
2019-01-18T21:35:20.309Z,99487.20
2019-01-18T21:38:04.077Z,99505.91
2019-01-18T21:40:43.153Z,99511.50
2019-01-18T21:43:21.994Z,99490.87
2019-01-18T21:46:09.133Z,99463.36
2019-01-18T21:49:22.944Z,99487.34
2019-01-18T21:52:09.087Z,99492.78
2019-01-18T21:54:50.804Z,99467.38
2019-01-18T21:57:32.846Z,99486.91
2019-01-18T22:00:13.772Z,99517.78
2019-01-18T22:04:59.154Z,99488.79
2019-01-18T22:08:09.943Z,99465.15
2019-01-18T22:10:57.338Z,99498.66
2019-01-18T22:13:34.690Z,99499.45
2019-01-18T22:16:23.282Z,99456.09
2019-01-18T22:21:11.112Z,99486.41
2019-01-18T22:23:49.147Z,99493.61
2019-01-18T22:26:32.173Z,99450.00
2019-01-18T22:29:11.859Z,99483.99
2019-01-18T22:31:54.402Z,99474.64
2019-01-18T22:34:47.525Z,99497.28
2019-01-18T22:37:26.460Z,99497.63
2019-01-18T22:42:10.450Z,99498.75
2019-01-18T22:45:25.148Z,99482.78
2019-01-18T22:48:06.385Z,99500.09
2019-01-18T22:50:52.716Z,99503.35
2019-01-18T22:55:39.759Z,99506.78
2019-01-18T22:58:32.491Z,99507.69
2019-01-18T23:01:18.406Z,99498.53
2019-01-18T23:06:08.648Z,99520.42
2019-01-18T23:09:16.579Z,99505.58
2019-01-18T23:11:51.794Z,99506.70
2019-01-18T23:14:31.873Z,99506.28
2019-01-18T23:17:11.823Z,99504.11
2019-01-18T23:20:15.295Z,99508.43
2019-01-18T23:23:03.416Z,99481.27
2019-01-18T23:27:00.909Z,99510.31
2019-01-18T23:29:41.862Z,99502.12
2019-01-18T23:33:25.858Z,99507.34
2019-01-18T23:36:33.326Z,99502.63
2019-01-18T23:39:47.709Z,99502.40
2019-01-18T23:42:52.514Z,99500.02
2019-01-18T23:45:36.847Z,99493.91
2019-01-18T23:48:40.988Z,99494.48
2019-01-18T23:53:21.014Z,99407.70
2019-01-18T23:55:58.526Z,99484.34
2019-01-18T23:58:45.754Z,99481.36
